Time;durP1;ratioP1;P1;durP2;ratioP2;P2;SDS_P1;SDS_P2;PMS_P1;PMS_P2;Temp;Humidity;BMP_temperature;BMP_pressure;BME280_temperature;BME280_humidity;BME280_pressure;Samples;Min_cycle;Max_cycle;Signal;HPM_P1;HPM_P2
2024/02/19 00:00:25;;;;;;;5.43;0.30;;;;;;;-146.25;100.00;52643.97;2080737;28;20905;-65
2024/02/19 00:01:29;;;;;;;4.80;0.32;;;;;;;-146.25;100.00;52611.50;2080749;28;20101;-66
2024/02/19 00:02:34;;;;;;;4.28;0.30;;;;;;;-146.25;100.00;52635.84;2079971;28;37721;-65
2024/02/19 00:03:35;;;;;;;4.03;0.30;;;;;;;-146.25;100.00;52627.75;2080475;28;32958;-66
2024/02/19 00:04:37;;;;;;;8.13;0.40;;;;;;;-146.25;100.00;52599.34;2079996;28;36102;-66
2024/02/19 00:05:41;;;;;;;4.80;0.50;;;;;;;-146.25;100.00;52597.31;2080117;28;33027;-66
2024/02/19 00:06:42;;;;;;;4.57;0.47;;;;;;;-146.25;100.00;52611.50;2080568;28;20046;-65
2024/02/19 00:07:46;;;;;;;5.95;0.57;;;;;;;-146.25;100.00;52585.16;2079904;28;36088;-65
2024/02/19 00:08:52;;;;;;;4.03;0.40;;;;;;;-146.25;100.00;52623.69;2079689;28;31519;-65
2024/02/19 00:09:54;;;;;;;7.13;0.40;;;;;;;-146.25;100.00;52619.63;2079993;28;31740;-66
2024/02/19 00:10:56;;;;;;;6.53;0.70;;;;;;;-146.25;100.00;52631.78;2080647;28;20046;-66
2024/02/19 00:11:59;;;;;;;9.93;0.50;;;;;;;-146.25;100.00;52615.56;2080233;28;33704;-66
2024/02/19 00:13:01;;;;;;;7.35;0.35;;;;;;;-146.25;100.00;52617.59;2079590;28;33882;-66
2024/02/19 00:14:03;;;;;;;7.25;0.73;;;;;;;-146.25;100.00;52597.31;2080152;28;32416;-66
2024/02/19 00:15:05;;;;;;;7.40;0.90;;;;;;;-146.25;100.00;52609.50;2080011;28;32688;-66
2024/02/19 00:16:07;;;;;;;9.30;0.80;;;;;;;-146.25;100.00;52615.56;2080142;28;35074;-66
2024/02/19 00:17:12;;;;;;;9.80;0.90;;;;;;;-146.25;100.00;52639.91;2079671;28;34141;-65
2024/02/19 00:18:14;;;;;;;8.38;0.60;;;;;;;-146.25;100.00;52631.78;2079711;28;37193;-66
2024/02/19 00:19:15;;;;;;;11.35;0.90;;;;;;;-146.25;100.00;52570.97;2081118;28;20046;-65
2024/02/19 00:20:19;;;;;;;11.77;1.13;;;;;;;-146.25;100.00;52601.38;2080114;28;36206;-66
2024/02/19 00:21:21;;;;;;;11.95;1.08;;;;;;;-146.25;100.00;52635.84;2079766;28;35467;-66
2024/02/19 00:22:23;;;;;;;11.27;0.98;;;;;;;-146.25;100.00;52639.91;2080173;28;33745;-66
2024/02/19 00:23:26;;;;;;;10.95;1.00;;;;;;;-146.25;100.00;52621.66;2079727;28;35899;-66
2024/02/19 00:24:28;;;;;;;7.57;0.60;;;;;;;-146.25;100.00;52666.25;2080559;28;20041;-66
2024/02/19 00:25:31;;;;;;;9.35;1.23;;;;;;;-146.25;100.00;52601.38;2079828;28;35370;-66
2024/02/19 00:26:33;;;;;;;11.95;1.15;;;;;;;-146.25;100.00;52591.25;2079830;28;36381;-66
2024/02/19 00:27:39;;;;;;;10.45;0.75;;;;;;;-146.25;100.00;52650.03;2079843;28;31410;-66
2024/02/19 00:28:41;;;;;;;10.35;0.95;;;;;;;-146.25;100.00;52635.84;2080307;28;32860;-66
2024/02/19 00:29:44;;;;;;;12.48;0.90;;;;;;;-146.25;100.00;52635.84;2080162;28;20046;-66
2024/02/19 00:30:46;;;;;;;13.23;1.17;;;;;;;-146.25;100.00;52643.97;2080156;28;36901;-66
2024/02/19 00:31:48;;;;;;;9.20;1.55;;;;;;;-146.25;100.00;52593.25;2079702;28;35036;-66
2024/02/19 00:32:50;;;;;;;7.65;0.63;;;;;;;-146.25;100.00;52639.91;2079874;28;33840;-64
2024/02/19 00:33:53;;;;;;;9.40;0.73;;;;;;;-146.25;100.00;52627.75;2079777;28;36869;-66
2024/02/19 00:34:58;;;;;;;9.65;0.85;;;;;;;-146.25;100.00;52639.91;2080789;28;20088;-66
2024/02/19 00:35:59;;;;;;;10.70;1.23;;;;;;;-146.25;100.00;52587.19;2079533;28;34591;-66
2024/02/19 00:37:01;;;;;;;8.05;0.70;;;;;;;-146.25;100.00;52633.81;2080204;28;35299;-66
2024/02/19 00:38:03;;;;;;;10.48;1.15;;;;;;;-146.25;100.00;52613.53;2079739;28;33984;-66
2024/02/19 00:39:07;;;;;;;8.10;0.70;;;;;;;-146.25;100.00;52613.53;2080046;28;38418;-66
2024/02/19 00:40:09;;;;;;;10.15;0.80;;;;;;;-146.25;100.00;52613.53;2079524;28;34117;-65
2024/02/19 00:41:10;;;;;;;8.88;0.70;;;;;;;-146.25;100.00;52577.03;2080770;28;33193;-67
2024/02/19 00:42:13;;;;;;;11.65;1.63;;;;;;;-146.25;100.00;52623.69;2080109;28;20833;-65
2024/02/19 00:43:14;;;;;;;10.20;0.95;;;;;;;-146.25;100.00;52623.69;2079888;28;35939;-67
2024/02/19 00:44:20;;;;;;;10.82;0.60;;;;;;;-146.25;100.00;52615.56;2079796;28;34637;-65
2024/02/19 00:45:22;;;;;;;9.13;0.88;;;;;;;-146.25;100.00;52639.91;2079893;28;35615;-65
2024/02/19 00:46:26;;;;;;;7.75;0.65;;;;;;;-146.25;100.00;52615.56;2079456;28;31794;-67
2024/02/19 00:47:28;;;;;;;12.18;1.17;;;;;;;-146.25;100.00;52631.78;2080408;28;20140;-66
2024/02/19 00:48:32;;;;;;;7.40;0.60;;;;;;;-146.25;100.00;52623.69;2079388;28;35405;-67
2024/02/19 00:49:34;;;;;;;10.43;0.65;;;;;;;-146.25;100.00;52615.56;2079746;28;31273;-68
2024/02/19 00:50:36;;;;;;;9.30;0.60;;;;;;;-146.25;100.00;52619.63;2079981;28;32242;-68
2024/02/19 00:51:37;;;;;;;5.93;0.38;;;;;;;-146.25;100.00;52641.94;2080149;28;32473;-66
2024/02/19 00:52:40;;;;;;;6.88;0.40;;;;;;;-146.25;100.00;52603.41;2080034;28;20842;-65
2024/02/19 00:53:42;;;;;;;8.52;0.55;;;;;;;-146.25;100.00;52637.88;2079998;28;36880;-66
2024/02/19 00:54:44;;;;;;;9.00;0.60;;;;;;;-146.25;100.00;52654.09;2080093;28;33753;-65
2024/02/19 00:55:47;;;;;;;7.32;0.30;;;;;;;-146.25;100.00;52633.81;2079084;28;35170;-66
2024/02/19 00:56:51;;;;;;;8.27;0.55;;;;;;;-146.25;100.00;52643.97;2079083;28;36134;-65
2024/02/19 00:57:53;;;;;;;5.97;0.38;;;;;;;-146.25;100.00;52609.50;2080296;28;20045;-66
2024/02/19 00:58:54;;;;;;;7.32;0.30;;;;;;;-146.25;100.00;52645.97;2079194;28;36512;-66
2024/02/19 00:59:56;;;;;;;7.30;0.52;;;;;;;-146.25;100.00;52615.56;2080333;28;30043;-66
2024/02/19 01:00:58;;;;;;;5.65;0.40;;;;;;;-146.25;100.00;52613.53;2079615;28;33086;-65
2024/02/19 01:02:03;;;;;;;10.93;0.45;;;;;;;-146.25;100.00;52656.13;2080166;28;36330;-66
2024/02/19 01:03:05;;;;;;;6.32;0.35;;;;;;;-146.25;100.00;52611.50;2080619;28;20863;-66
2024/02/19 01:04:07;;;;;;;3.38;0.20;;;;;;;-146.25;100.00;52599.34;2079750;28;38608;-66
2024/02/19 01:05:09;;;;;;;5.22;0.22;;;;;;;-146.25;100.00;52625.72;2079208;28;33605;-66
2024/02/19 01:06:11;;;;;;;6.30;0.30;;;;;;;-146.25;100.00;52573.00;2080010;28;36913;-66
2024/02/19 01:07:16;;;;;;;7.85;0.28;;;;;;;-146.25;100.00;52597.31;2080066;28;20747;-66
2024/02/19 01:08:17;;;;;;;5.10;0.22;;;;;;;-146.25;100.00;52641.94;2079825;28;35111;-68
2024/02/19 01:09:19;;;;;;;4.22;0.20;;;;;;;-146.25;100.00;52607.47;2079872;28;20049;-66
2024/02/19 01:10:21;;;;;;;3.67;0.43;;;;;;;-146.25;100.00;52627.75;2080174;28;31543;-66
2024/02/19 01:11:23;;;;;;;5.07;0.30;;;;;;;-146.25;100.00;52641.94;2078935;28;29641;-66
2024/02/19 01:12:25;;;;;;;2.95;0.20;;;;;;;-146.25;100.00;52637.88;2079376;28;29373;-66
2024/02/19 01:13:26;;;;;;;2.40;0.20;;;;;;;-146.25;100.00;52635.84;2078813;28;37098;-66
2024/02/19 01:14:28;;;;;;;8.25;0.28;;;;;;;-146.25;100.00;52637.88;2079247;28;31495;-66
2024/02/19 01:15:30;;;;;;;5.00;0.35;;;;;;;-146.25;100.00;52619.63;2079642;28;33635;-66
2024/02/19 01:16:32;;;;;;;4.45;0.30;;;;;;;-146.25;100.00;52595.28;2079856;28;35646;-66
2024/02/19 01:17:34;;;;;;;6.20;0.32;;;;;;;-146.25;100.00;52652.06;2079276;28;35693;-66
2024/02/19 01:18:36;;;;;;;6.75;0.20;;;;;;;-146.25;100.00;52643.97;2080012;28;35352;-66
2024/02/19 01:19:41;;;;;;;3.35;0.30;;;;;;;-146.25;100.00;52631.78;2079293;28;32073;-66
2024/02/19 01:20:43;;;;;;;3.97;0.40;;;;;;;-146.25;100.00;52627.75;2079745;28;34518;-66
2024/02/19 01:21:45;;;;;;;4.88;0.38;;;;;;;-146.25;100.00;52650.03;2079060;28;35416;-66
2024/02/19 01:22:46;;;;;;;5.80;0.28;;;;;;;-146.25;100.00;52601.38;2080537;28;20045;-66
2024/02/19 01:23:48;;;;;;;5.70;0.30;;;;;;;-146.25;100.00;52625.72;2079454;28;35164;-65
2024/02/19 01:24:50;;;;;;;4.22;0.20;;;;;;;-146.25;100.00;52637.88;2079568;28;35648;-66
2024/02/19 01:25:55;;;;;;;3.30;0.50;;;;;;;-146.25;100.00;52611.50;2080040;28;36488;-68
2024/02/19 01:26:58;;;;;;;4.43;0.30;;;;;;;-146.25;100.00;52645.97;2080051;28;33787;-66
2024/02/19 01:28:00;;;;;;;3.33;0.40;;;;;;;-146.25;100.00;52619.63;2079089;28;37638;-66
2024/02/19 01:29:01;;;;;;;4.65;0.40;;;;;;;-146.25;100.00;52619.63;2079878;28;33648;-66
2024/02/19 01:30:05;;;;;;;4.75;0.20;;;;;;;-146.25;100.00;52635.84;2079318;28;33487;-66
2024/02/19 01:31:08;;;;;;;6.15;0.30;;;;;;;-146.25;100.00;52637.88;2079823;28;36146;-66
2024/02/19 01:32:11;;;;;;;6.65;0.30;;;;;;;-146.25;100.00;52637.88;2078949;28;34751;-65
2024/02/19 01:33:14;;;;;;;7.22;0.57;;;;;;;-146.25;100.00;52645.97;2079140;28;34803;-66
2024/02/19 01:34:17;;;;;;;6.38;0.30;;;;;;;-146.25;100.00;52639.91;2080062;28;31248;-66
2024/02/19 01:35:18;;;;;;;4.88;0.20;;;;;;;-146.25;100.00;52648.00;2079380;28;36133;-66
2024/02/19 01:36:21;;;;;;;5.68;0.20;;;;;;;-146.25;100.00;52613.53;2079904;28;34539;-66
2024/02/19 01:37:23;;;;;;;4.15;0.10;;;;;;;-146.25;100.00;52575.00;2079621;28;33913;-66
2024/02/19 01:38:25;;;;;;;3.90;0.10;;;;;;;-146.25;100.00;52639.91;2070236;28;35963;-66
2024/02/19 01:39:27;;;;;;;6.70;0.25;;;;;;;-146.25;100.00;52607.47;2071013;28;32212;-66
2024/02/19 01:40:29;;;;;;;4.03;0.30;;;;;;;-146.25;100.00;52603.41;2079401;28;33701;-66
2024/02/19 01:41:31;;;;;;;7.63;0.40;;;;;;;-146.25;100.00;52617.59;2079749;28;37948;-66
2024/02/19 01:42:32;;;;;;;4.75;0.35;;;;;;;-146.25;100.00;52603.41;2079323;28;36186;-66
2024/02/19 01:43:36;;;;;;;4.53;0.20;;;;;;;-146.25;100.00;52601.38;2078580;28;33241;-66
2024/02/19 01:44:38;;;;;;;5.88;0.25;;;;;;;-146.25;100.00;52645.97;2078799;28;36016;-68
2024/02/19 01:45:40;;;;;;;3.88;0.30;;;;;;;-146.25;100.00;52619.63;2079466;28;34421;-67
2024/02/19 01:46:42;;;;;;;2.95;0.10;;;;;;;-146.25;100.00;52619.63;2079617;28;37401;-67
2024/02/19 01:47:44;;;;;;;3.38;0.10;;;;;;;-146.25;100.00;52621.66;2079654;28;37702;-68
2024/02/19 01:48:46;;;;;;;4.25;0.20;;;;;;;-146.25;100.00;52660.19;2070635;28;35485;-67
2024/02/19 01:49:51;;;;;;;4.50;0.20;;;;;;;-146.25;100.00;52619.63;2070351;28;35055;-68
2024/02/19 01:50:53;;;;;;;4.20;0.25;;;;;;;-146.25;100.00;52613.53;2071305;28;33204;-65
2024/02/19 01:51:55;;;;;;;4.93;0.20;;;;;;;-146.25;100.00;52615.56;2070951;28;36517;-66
2024/02/19 01:53:05;;;;;;;6.47;0.20;;;;;;;-146.25;100.00;52587.19;2071366;28;31401;-67
2024/02/19 01:54:09;;;;;;;4.77;0.20;;;;;;;-146.25;100.00;52615.56;2071528;28;37640;-65
2024/02/19 01:55:12;;;;;;;7.53;0.45;;;;;;;-146.25;100.00;52615.56;2079144;28;20482;-67
2024/02/19 01:56:14;;;;;;;5.82;0.20;;;;;;;-146.25;100.00;52625.72;2077983;28;33689;-67
2024/02/19 01:57:16;;;;;;;4.35;0.20;;;;;;;-146.25;100.00;52635.84;2079528;28;20039;-68
2024/02/19 01:58:18;;;;;;;6.32;0.20;;;;;;;-146.25;100.00;52666.25;2070247;28;35132;-68
2024/02/19 01:59:27;;;;;;;3.75;0.10;;;;;;;-146.25;100.00;52660.19;2063573;28;21213;-65
2024/02/19 02:00:32;;;;;;;5.47;0.20;;;;;;;-146.25;100.00;52643.97;2079606;28;20152;-68
2024/02/19 02:01:37;;;;;;;3.20;0.17;;;;;;;-146.25;100.00;52623.69;2077480;28;37257;-67
2024/02/19 02:02:39;;;;;;;4.60;0.20;;;;;;;-146.25;100.00;52607.47;2079483;28;20049;-65
2024/02/19 02:03:43;;;;;;;7.75;0.40;;;;;;;-146.25;100.00;52635.84;2070025;28;33614;-67
2024/02/19 02:04:45;;;;;;;3.65;0.10;;;;;;;-146.25;100.00;52607.47;2062697;28;36583;-66
2024/02/19 02:05:48;;;;;;;2.75;0.20;;;;;;;-146.25;100.00;52627.75;2071170;28;34204;-68
2024/02/19 02:06:50;;;;;;;4.68;0.20;;;;;;;-146.25;100.00;52631.78;2071082;28;34851;-67
2024/02/19 02:07:55;;;;;;;3.60;0.15;;;;;;;-146.25;100.00;52674.38;2071040;28;38046;-65
2024/02/19 02:08:58;;;;;;;5.53;0.20;;;;;;;-146.25;100.00;52611.50;2071615;28;32499;-65
2024/02/19 02:10:03;;;;;;;6.68;0.20;;;;;;;-146.25;100.00;52623.69;2078707;28;34709;-65
2024/02/19 02:11:07;;;;;;;6.82;0.22;;;;;;;-146.25;100.00;52613.53;2069971;28;38596;-65
2024/02/19 02:12:12;;;;;;;7.32;0.40;;;;;;;-146.25;100.00;52656.13;2063782;28;20047;-66
2024/02/19 02:13:15;;;;;;;3.42;0.15;;;;;;;-146.25;100.00;52633.81;2070807;28;33775;-65
2024/02/19 02:14:18;;;;;;;4.85;0.10;;;;;;;-146.25;100.00;52641.94;2079270;28;33296;-66
2024/02/19 02:15:19;;;;;;;6.03;0.20;;;;;;;-146.25;100.00;52601.38;2078341;28;27971;-66
2024/02/19 02:16:25;;;;;;;4.55;0.20;;;;;;;-146.25;100.00;52611.50;2071206;28;32386;-66
2024/02/19 02:17:27;;;;;;;3.95;0.30;;;;;;;-146.25;100.00;52650.03;2072240;28;20161;-65
2024/02/19 02:18:31;;;;;;;7.75;0.30;;;;;;;-146.25;100.00;52633.81;2072205;28;20853;-66
2024/02/19 02:19:33;;;;;;;7.57;0.13;;;;;;;-146.25;100.00;52611.50;2079458;28;34695;-65
2024/02/19 02:20:35;;;;;;;6.50;0.25;;;;;;;-146.25;100.00;52595.28;2078816;28;32000;-65
2024/02/19 02:21:41;;;;;;;4.13;0.20;;;;;;;-146.25;100.00;52617.59;2079567;28;34715;-65
2024/02/19 02:22:44;;;;;;;3.80;0.20;;;;;;;-146.25;100.00;52639.91;2079289;28;32843;-65
2024/02/19 02:23:47;;;;;;;4.53;0.10;;;;;;;-146.25;100.00;52611.50;2079607;28;33180;-65
2024/02/19 02:24:49;;;;;;;5.82;0.20;;;;;;;-146.25;100.00;52623.69;2078055;28;38064;-65
2024/02/19 02:25:53;;;;;;;5.82;0.20;;;;;;;-146.25;100.00;52609.50;2079171;28;35276;-66
2024/02/19 02:26:54;;;;;;;3.05;0.20;;;;;;;-146.25;100.00;52643.97;2078780;28;35021;-66
2024/02/19 02:27:57;;;;;;;5.70;0.20;;;;;;;-146.25;100.00;52593.25;2079491;28;34371;-64
2024/02/19 02:28:59;;;;;;;5.63;0.20;;;;;;;-146.25;100.00;52587.19;2078921;28;36664;-65
2024/02/19 02:30:03;;;;;;;3.85;0.10;;;;;;;-146.25;100.00;52623.69;2079545;28;38854;-65
2024/02/19 02:31:05;;;;;;;7.68;0.20;;;;;;;-146.25;100.00;52656.13;2078764;28;32945;-65
2024/02/19 02:32:07;;;;;;;7.38;0.30;;;;;;;-146.25;100.00;52603.41;2079463;28;38444;-65
2024/02/19 02:33:11;;;;;;;4.50;0.08;;;;;;;-146.25;100.00;52631.78;2079351;28;32709;-65
2024/02/19 02:34:13;;;;;;;4.30;0.10;;;;;;;-146.25;100.00;52615.56;2079377;28;33258;-66
2024/02/19 02:35:15;;;;;;;6.03;0.13;;;;;;;-146.25;100.00;52591.25;2078565;28;36168;-66
2024/02/19 02:36:16;;;;;;;7.15;0.22;;;;;;;-146.25;100.00;52613.53;2079669;28;32585;-65
2024/02/19 02:37:18;;;;;;;6.35;0.40;;;;;;;-146.25;100.00;52627.75;2079002;28;34231;-65
2024/02/19 02:38:20;;;;;;;3.20;0.10;;;;;;;-146.25;100.00;52654.09;2079177;28;37521;-66
2024/02/19 02:39:22;;;;;;;6.65;0.20;;;;;;;-146.25;100.00;52627.75;2079082;28;35685;-66
2024/02/19 02:40:24;;;;;;;3.78;0.20;;;;;;;-146.25;100.00;52648.00;2079216;28;36389;-66
2024/02/19 02:41:26;;;;;;;2.55;0.20;;;;;;;-146.25;100.00;52658.16;2079225;28;32986;-66
2024/02/19 02:42:30;;;;;;;4.38;0.25;;;;;;;-146.25;100.00;52613.53;2079258;28;20916;-65
2024/02/19 02:43:32;;;;;;;4.30;0.20;;;;;;;-146.25;100.00;52633.81;2079247;28;35521;-66
2024/02/19 02:44:34;;;;;;;4.38;0.20;;;;;;;-146.25;100.00;52617.59;2080644;28;35572;-66
2024/02/19 02:45:35;;;;;;;5.40;0.30;;;;;;;-146.25;100.00;52627.75;2080256;28;32746;-66
2024/02/19 02:46:37;;;;;;;2.38;0.10;;;;;;;-146.25;100.00;52617.59;2081165;28;30938;-66
2024/02/19 02:47:40;;;;;;;2.50;0.13;;;;;;;-146.25;100.00;52593.25;2080198;28;36338;-66
2024/02/19 02:48:42;;;;;;;3.90;0.10;;;;;;;-146.25;100.00;52595.28;2080934;28;35612;-65
2024/02/19 02:49:44;;;;;;;2.42;0.20;;;;;;;-146.25;100.00;52623.69;2080299;28;32701;-65
2024/02/19 02:50:46;;;;;;;4.90;0.10;;;;;;;-146.25;100.00;52656.13;2080640;28;39684;-65
2024/02/19 02:51:50;;;;;;;6.60;0.20;;;;;;;-146.25;100.00;52641.94;2081121;28;20045;-65
2024/02/19 02:52:51;;;;;;;4.32;0.10;;;;;;;-146.25;100.00;52631.78;2080637;28;38988;-66
2024/02/19 02:53:53;;;;;;;2.35;0.35;;;;;;;-146.25;100.00;52643.97;2080281;28;33885;-66
2024/02/19 02:54:55;;;;;;;3.30;0.10;;;;;;;-146.25;100.00;52611.50;2081880;28;20035;-66
2024/02/19 02:55:57;;;;;;;4.22;0.20;;;;;;;-146.25;100.00;52648.00;2080425;28;34090;-68
2024/02/19 02:57:00;;;;;;;3.83;0.25;;;;;;;-146.25;100.00;52627.75;2080594;28;37382;-68
2024/02/19 02:58:02;;;;;;;2.92;0.30;;;;;;;-146.25;100.00;52648.00;2080308;28;31180;-68
2024/02/19 02:59:03;;;;;;;2.80;0.13;;;;;;;-146.25;100.00;52599.34;2080647;28;35914;-68
2024/02/19 03:00:08;;;;;;;3.15;0.10;;;;;;;-146.25;100.00;52654.09;2079915;28;32244;-68
2024/02/19 03:01:10;;;;;;;2.35;0.10;;;;;;;-146.25;100.00;52631.78;2079749;28;36016;-68
2024/02/19 03:02:14;;;;;;;2.30;0.10;;;;;;;-146.25;100.00;52623.69;2080558;28;34229;-68
2024/02/19 03:03:16;;;;;;;1.23;0.10;;;;;;;-146.25;100.00;52615.56;2080668;28;35574;-68
2024/02/19 03:04:20;;;;;;;3.88;0.32;;;;;;;-146.25;100.00;52641.94;2080513;28;37150;-67
2024/02/19 03:05:21;;;;;;;2.78;0.10;;;;;;;-146.25;100.00;52595.28;2080730;28;32853;-68
2024/02/19 03:06:25;;;;;;;3.40;0.20;;;;;;;-146.25;100.00;52648.00;2080283;28;32921;-66
2024/02/19 03:07:27;;;;;;;3.38;0.10;;;;;;;-146.25;100.00;52619.63;2080500;28;39634;-67
2024/02/19 03:08:29;;;;;;;2.58;0.10;;;;;;;-146.25;100.00;52605.44;2080146;28;34778;-68
2024/02/19 03:09:31;;;;;;;5.82;0.20;;;;;;;-146.25;100.00;52611.50;2080856;28;37442;-67
2024/02/19 03:10:33;;;;;;;3.95;0.13;;;;;;;-146.25;100.00;52627.75;2080286;28;35245;-67
2024/02/19 03:11:34;;;;;;;1.55;0.10;;;;;;;-146.25;100.00;52652.06;2072276;28;20112;-67
2024/02/19 03:12:36;;;;;;;1.80;0.10;;;;;;;-146.25;100.00;52631.78;2071854;28;31827;-67
2024/02/19 03:13:38;;;;;;;1.98;0.10;;;;;;;-146.25;100.00;52615.56;2080714;28;35667;-68
2024/02/19 03:14:41;;;;;;;2.90;0.10;;;;;;;-146.25;100.00;52619.63;2080051;28;33069;-67
2024/02/19 03:15:43;;;;;;;3.05;0.17;;;;;;;-146.25;100.00;52631.78;2080678;28;33525;-67
2024/02/19 03:16:45;;;;;;;4.47;0.10;;;;;;;-146.25;100.00;52623.69;2080334;28;36050;-67
2024/02/19 03:17:47;;;;;;;0.93;0.10;;;;;;;-146.25;100.00;52601.38;2080976;28;28945;-67
2024/02/19 03:18:48;;;;;;;3.08;0.10;;;;;;;-146.25;100.00;52611.50;2080415;28;27934;-66
2024/02/19 03:19:53;;;;;;;4.75;0.20;;;;;;;-146.25;100.00;52619.63;2080768;28;20156;-68
2024/02/19 03:20:56;;;;;;;3.53;0.30;;;;;;;-146.25;100.00;52605.44;2079543;28;33410;-66
2024/02/19 03:21:58;;;;;;;2.25;0.20;;;;;;;-146.25;100.00;52654.09;2080349;28;33773;-68
2024/02/19 03:23:01;;;;;;;2.42;0.10;;;;;;;-146.25;100.00;52579.06;2079710;28;37045;-67
2024/02/19 03:24:05;;;;;;;3.00;0.20;;;;;;;-146.25;100.00;52639.91;2081348;28;20180;-67
2024/02/19 03:25:07;;;;;;;0.90;0.10;;;;;;;-146.25;100.00;52611.50;2080092;28;35934;-65
2024/02/19 03:26:11;;;;;;;2.50;0.10;;;;;;;-146.25;100.00;52637.88;2080617;28;35370;-66
2024/02/19 03:27:14;;;;;;;3.25;0.10;;;;;;;-146.25;100.00;52652.06;2080228;28;36147;-66
2024/02/19 03:28:15;;;;;;;0.75;0.10;;;;;;;-146.25;100.00;52607.47;2080046;28;37063;-65
2024/02/19 03:29:17;;;;;;;2.00;0.10;;;;;;;-146.25;100.00;52621.66;2080501;28;30350;-66
2024/02/19 03:30:20;;;;;;;1.80;0.20;;;;;;;-146.25;100.00;52643.97;2080480;28;34642;-66
2024/02/19 03:31:22;;;;;;;1.77;0.20;;;;;;;-146.25;100.00;52639.91;2080382;28;35432;-66
2024/02/19 03:32:24;;;;;;;1.45;0.10;;;;;;;-146.25;100.00;52599.34;2080624;28;32002;-66
2024/02/19 03:33:28;;;;;;;1.40;0.10;;;;;;;-146.25;100.00;52621.66;2079954;28;36696;-65
2024/02/19 03:34:33;;;;;;;3.10;0.20;;;;;;;-146.25;100.00;52591.25;2080279;28;33622;-66
2024/02/19 03:35:34;;;;;;;2.08;0.20;;;;;;;-146.25;100.00;52619.63;2079613;28;34262;-65
2024/02/19 03:36:36;;;;;;;2.47;0.40;;;;;;;-146.25;100.00;52613.53;2080522;28;36690;-66
2024/02/19 03:37:38;;;;;;;3.28;0.25;;;;;;;-146.25;100.00;52605.44;2079736;28;37405;-66
2024/02/19 03:38:41;;;;;;;1.98;0.10;;;;;;;-146.25;100.00;52615.56;2080101;28;34675;-65
2024/02/19 03:39:44;;;;;;;1.65;0.10;;;;;;;-146.25;100.00;52639.91;2080439;28;27680;-65
2024/02/19 03:40:46;;;;;;;3.15;0.30;;;;;;;-146.25;100.00;52619.63;2080507;28;33498;-66
2024/02/19 03:41:49;;;;;;;2.95;0.10;;;;;;;-146.25;100.00;52641.94;2080252;28;35340;-65
2024/02/19 03:42:51;;;;;;;2.83;0.10;;;;;;;-146.25;100.00;52625.72;2079813;28;34087;-66
2024/02/19 03:43:52;;;;;;;2.60;0.20;;;;;;;-146.25;100.00;52615.56;2079536;28;34685;-66
2024/02/19 03:44:55;;;;;;;3.00;0.20;;;;;;;-146.25;100.00;52619.63;2079576;28;35883;-66
2024/02/19 03:45:57;;;;;;;2.63;0.10;;;;;;;-146.25;100.00;52619.63;2080346;28;33204;-66
2024/02/19 03:46:59;;;;;;;1.25;0.10;;;;;;;-146.25;100.00;52613.53;2080296;28;36965;-65
2024/02/19 03:48:03;;;;;;;3.60;0.10;;;;;;;-146.25;100.00;52631.78;2080026;28;37850;-66
2024/02/19 03:49:04;;;;;;;0.75;0.10;;;;;;;-146.25;100.00;52629.75;2080782;28;20251;-66
2024/02/19 03:50:07;;;;;;;2.88;0.20;;;;;;;-146.25;100.00;52607.47;2080119;28;39071;-66
2024/02/19 03:51:10;;;;;;;3.70;0.30;;;;;;;-146.25;100.00;52629.75;2080524;28;32517;-66
2024/02/19 03:52:11;;;;;;;3.10;0.20;;;;;;;-146.25;100.00;52635.84;2080210;28;33845;-66
2024/02/19 03:53:13;;;;;;;2.60;0.20;;;;;;;-146.25;100.00;52601.38;2081192;28;20832;-66
2024/02/19 03:54:15;;;;;;;2.13;0.20;;;;;;;-146.25;100.00;52591.25;2079666;28;36527;-65
2024/02/19 03:55:19;;;;;;;4.32;0.20;;;;;;;-146.25;100.00;52652.06;2079969;28;37306;-65
2024/02/19 03:56:21;;;;;;;1.60;0.20;;;;;;;-146.25;100.00;52650.03;2079769;28;35649;-65
2024/02/19 03:57:23;;;;;;;2.30;0.20;;;;;;;-146.25;100.00;52623.69;2080451;28;35374;-65
2024/02/19 03:58:25;;;;;;;3.17;0.30;;;;;;;-146.25;100.00;52613.53;2080246;28;20917;-65
2024/02/19 03:59:27;;;;;;;3.97;0.30;;;;;;;-146.25;100.00;52627.75;2080500;28;37896;-65
2024/02/19 04:00:30;;;;;;;2.30;0.20;;;;;;;-146.25;100.00;52639.91;2080000;28;34909;-66
2024/02/19 04:01:32;;;;;;;3.33;0.30;;;;;;;-146.25;100.00;52619.63;2080915;28;34421;-66
2024/02/19 04:02:36;;;;;;;2.60;0.20;;;;;;;-146.25;100.00;52639.91;2079877;28;34866;-65
2024/02/19 04:03:40;;;;;;;3.70;0.30;;;;;;;-146.25;100.00;52603.41;2080476;28;36045;-66
2024/02/19 04:04:42;;;;;;;4.57;0.52;;;;;;;-146.25;100.00;52585.16;2079980;28;34513;-66
2024/02/19 04:05:44;;;;;;;2.75;0.32;;;;;;;-146.25;100.00;52609.50;2080282;28;33177;-66
2024/02/19 04:06:49;;;;;;;3.05;0.20;;;;;;;-146.25;100.00;52623.69;2080349;28;20877;-66
2024/02/19 04:07:50;;;;;;;2.65;0.17;;;;;;;-146.25;100.00;52625.72;2079822;28;36966;-66
2024/02/19 04:08:54;;;;;;;4.00;0.32;;;;;;;-146.25;100.00;52623.69;2080446;28;20038;-65
2024/02/19 04:09:56;;;;;;;3.33;0.40;;;;;;;-146.25;100.00;52611.50;2080549;28;36606;-67
2024/02/19 04:10:58;;;;;;;3.58;0.35;;;;;;;-146.25;100.00;52619.63;2080129;28;34399;-65
2024/02/19 04:12:01;;;;;;;3.35;0.30;;;;;;;-146.25;100.00;52587.19;2080205;28;34405;-66
2024/02/19 04:13:03;;;;;;;5.13;0.25;;;;;;;-146.25;100.00;52645.97;2079624;28;31755;-66
2024/02/19 04:14:05;;;;;;;3.20;0.38;;;;;;;-146.25;100.00;52595.28;2080045;28;35219;-66
2024/02/19 04:15:09;;;;;;;4.63;0.50;;;;;;;-146.25;100.00;52601.38;2080146;28;33972;-66
2024/02/19 04:16:13;;;;;;;4.88;0.30;;;;;;;-146.25;100.00;52617.59;2080051;28;37277;-66
2024/02/19 04:17:15;;;;;;;2.95;0.50;;;;;;;-146.25;100.00;52615.56;2079574;28;33359;-66
2024/02/19 04:18:17;;;;;;;4.05;0.50;;;;;;;-146.25;100.00;52658.16;2080562;28;32976;-66
2024/02/19 04:19:27;;;;;;;1.73;0.30;;;;;;;-146.25;100.00;52639.91;2080046;28;30917;-66
2024/02/19 04:20:29;;;;;;;3.58;0.50;;;;;;;-146.25;100.00;52656.13;2080935;28;20885;-66
2024/02/19 04:21:31;;;;;;;5.68;0.50;;;;;;;-146.25;100.00;52648.00;2079458;28;37079;-66
2024/02/19 04:22:36;;;;;;;3.78;0.50;;;;;;;-146.25;100.00;52615.56;2080815;28;20535;-66
2024/02/19 04:23:37;;;;;;;4.13;0.43;;;;;;;-146.25;100.00;52648.00;2079846;28;33144;-66
2024/02/19 04:24:39;;;;;;;4.93;0.55;;;;;;;-146.25;100.00;52668.28;2079555;28;37382;-66
2024/02/19 04:25:41;;;;;;;3.22;0.50;;;;;;;-146.25;100.00;52631.78;2079980;28;33121;-66
2024/02/19 04:26:43;;;;;;;4.07;0.50;;;;;;;-146.25;100.00;52615.56;2080098;28;36944;-65
2024/02/19 04:27:45;;;;;;;2.50;0.40;;;;;;;-146.25;100.00;52611.50;2079891;28;32800;-66
2024/02/19 04:28:47;;;;;;;4.85;0.40;;;;;;;-146.25;100.00;52643.97;2080659;28;20038;-66
2024/02/19 04:29:51;;;;;;;3.53;0.30;;;;;;;-146.25;100.00;52625.72;2079783;28;34988;-66
2024/02/19 04:30:53;;;;;;;2.65;0.30;;;;;;;-146.25;100.00;52629.75;2080270;28;32301;-66
2024/02/19 04:31:54;;;;;;;3.88;0.60;;;;;;;-146.25;100.00;52595.28;2079729;28;33880;-66
2024/02/19 04:32:56;;;;;;;3.17;0.30;;;;;;;-146.25;100.00;52625.72;2080106;28;35499;-66
2024/02/19 04:33:58;;;;;;;2.75;0.30;;;;;;;-146.25;100.00;52623.69;2079987;28;33157;-66
2024/02/19 04:35:00;;;;;;;1.20;0.20;;;;;;;-146.25;100.00;52656.13;2080600;28;20068;-66
2024/02/19 04:36:02;;;;;;;4.68;0.30;;;;;;;-146.25;100.00;52627.75;2079742;28;37368;-66
2024/02/19 04:37:06;;;;;;;4.30;0.30;;;;;;;-146.25;100.00;52615.56;2080113;28;33496;-66
2024/02/19 04:38:08;;;;;;;1.35;0.25;;;;;;;-146.25;100.00;52619.63;2079753;28;32107;-66
2024/02/19 04:39:11;;;;;;;3.70;0.30;;;;;;;-146.25;100.00;52674.38;2079890;28;35422;-66
2024/02/19 04:40:13;;;;;;;3.05;0.20;;;;;;;-146.25;100.00;52617.59;2079718;28;38571;-66
2024/02/19 04:41:15;;;;;;;2.40;0.30;;;;;;;-146.25;100.00;52581.09;2080539;28;20042;-65
2024/02/19 04:42:17;;;;;;;2.15;0.28;;;;;;;-146.25;100.00;52639.91;2079810;28;38862;-66
2024/02/19 04:43:19;;;;;;;3.45;0.20;;;;;;;-146.25;100.00;52660.19;2079816;28;38869;-66
2024/02/19 04:44:21;;;;;;;3.42;0.28;;;;;;;-146.25;100.00;52633.81;2079585;28;36892;-66